Time;durP1;ratioP1;P1;durP2;ratioP2;P2;SDS_P1;SDS_P2;PMS_P1;PMS_P2;Temp;Humidity;BMP_temperature;BMP_pressure;BME280_temperature;BME280_humidity;BME280_pressure;Samples;Min_cycle;Max_cycle;Signal;HPM_P1;HPM_P2
2022/04/09 00:02:05;;;;;;;;;;;20.40;38.60;;;;;;5065818;28;20365;-61
2022/04/09 00:04:31;;;;;;;;;;;20.40;38.70;;;;;;5064432;28;19993;-60
2022/04/09 00:06:56;;;;;;;;;;;20.40;39.40;;;;;;5067960;28;19912;-60
2022/04/09 00:09:22;;;;;;;;;;;20.40;38.70;;;;;;5061248;28;19939;-60
2022/04/09 00:11:47;;;;;;;;;;;20.40;38.60;;;;;;5063945;28;20300;-60
2022/04/09 00:14:13;;;;;;;;;;;20.40;38.60;;;;;;5043131;28;19913;-61
2022/04/09 00:16:41;;;;;;;;;;;20.30;38.60;;;;;;5038666;28;19913;-61
2022/04/09 00:19:07;;;;;;;;;;;20.40;38.70;;;;;;5067357;28;19912;-60
2022/04/09 00:21:32;;;;;;;;;;;20.30;38.70;;;;;;5061222;28;21935;-61
2022/04/09 00:23:59;;;;;;;;;;;20.30;38.70;;;;;;5065094;28;21470;-58
2022/04/09 00:26:25;;;;;;;;;;;20.20;38.70;;;;;;5064682;28;20019;-60
2022/04/09 00:28:50;;;;;;;;;;;20.20;38.80;;;;;;5052401;28;20339;-60
2022/04/09 00:31:16;;;;;;;;;;;20.20;38.70;;;;;;5064963;28;19999;-61
2022/04/09 00:33:41;;;;;;;;;;;20.20;38.70;;;;;;5047706;28;19920;-62
2022/04/09 00:36:07;;;;;;;;;;;20.20;38.80;;;;;;5065602;28;20357;-60
2022/04/09 00:38:32;;;;;;;;;;;20.30;38.80;;;;;;5064600;28;19912;-61
2022/04/09 00:40:58;;;;;;;;;;;20.20;38.70;;;;;;5050706;28;20269;-60
2022/04/09 00:43:23;;;;;;;;;;;20.20;38.70;;;;;;5065518;28;19917;-60
2022/04/09 00:45:49;;;;;;;;;;;20.20;38.80;;;;;;5067152;28;19999;-61
2022/04/09 00:48:14;;;;;;;;;;;20.10;38.90;;;;;;5066359;28;19920;-60
2022/04/09 00:50:40;;;;;;;;;;;20.10;38.80;;;;;;5049730;28;19939;-61
2022/04/09 00:53:07;;;;;;;;;;;20.10;38.80;;;;;;5061014;28;19962;-60
2022/04/09 00:58:17;;;;;;;;;;;20.10;38.80;;;;;;5038003;28;19919;-60
2022/04/09 01:00:43;;;;;;;;;;;20.10;38.80;;;;;;5060923;28;19917;-61
2022/04/09 01:03:11;;;;;;;;;;;20.10;38.80;;;;;;5064574;28;19919;-60
2022/04/09 01:05:37;;;;;;;;;;;20.10;38.80;;;;;;5065183;28;19916;-60
2022/04/09 01:08:03;;;;;;;;;;;20.10;38.80;;;;;;5068151;28;20318;-61
2022/04/09 01:10:28;;;;;;;;;;;20.10;38.70;;;;;;5045555;28;19917;-60
2022/04/09 01:12:54;;;;;;;;;;;20.00;38.80;;;;;;5061492;28;20463;-60
2022/04/09 01:15:19;;;;;;;;;;;20.00;38.80;;;;;;5061931;28;20395;-60
2022/04/09 01:17:45;;;;;;;;;;;20.00;39.60;;;;;;5065120;28;20303;-60
2022/04/09 01:20:17;;;;;;;;;;;20.00;39.00;;;;;;5029718;28;20280;-61
2022/04/09 01:22:42;;;;;;;;;;;20.10;39.10;;;;;;5061729;28;20015;-61
2022/04/09 01:25:08;;;;;;;;;;;20.10;39.10;;;;;;5044459;28;20003;-60
2022/04/09 01:27:33;;;;;;;;;;;20.10;39.10;;;;;;5064420;28;20280;-61
2022/04/09 01:29:59;;;;;;;;;;;20.10;39.00;;;;;;5066853;28;19951;-60
2022/04/09 01:32:24;;;;;;;;;;;20.30;38.80;;;;;;5064646;28;19927;-60
2022/04/09 01:34:52;;;;;;;;;;;20.60;38.40;;;;;;5064098;28;19913;-60
2022/04/09 01:37:18;;;;;;;;;;;20.90;37.90;;;;;;5063744;28;20012;-60
2022/04/09 01:39:43;;;;;;;;;;;21.30;37.40;;;;;;5043940;28;20002;-60
2022/04/09 01:42:10;;;;;;;;;;;21.60;37.00;;;;;;5062156;28;19938;-60
2022/04/09 01:44:36;;;;;;;;;;;21.80;36.40;;;;;;5047498;28;19921;-61
2022/04/09 01:47:01;;;;;;;;;;;21.90;36.20;;;;;;5064307;28;19912;-61
2022/04/09 01:49:27;;;;;;;;;;;21.80;36.30;;;;;;5045391;28;19912;-60
2022/04/09 01:51:52;;;;;;;;;;;21.70;36.40;;;;;;5060561;28;20032;-60
2022/04/09 01:54:18;;;;;;;;;;;21.60;36.60;;;;;;5059612;28;19917;-61
2022/04/09 01:56:43;;;;;;;;;;;21.50;36.80;;;;;;5064966;28;20387;-61
2022/04/09 01:59:09;;;;;;;;;;;21.40;37.00;;;;;;5056436;28;20372;-61
2022/04/09 02:01:34;;;;;;;;;;;21.30;37.20;;;;;;5059359;28;20413;-60
2022/04/09 02:04:00;;;;;;;;;;;21.20;37.50;;;;;;5059400;28;19956;-60
2022/04/09 02:06:25;;;;;;;;;;;21.10;37.60;;;;;;5047566;28;20438;-61
2022/04/09 02:08:51;;;;;;;;;;;21.00;37.70;;;;;;5045824;28;19917;-61
2022/04/09 02:11:16;;;;;;;;;;;20.90;37.80;;;;;;5061304;28;20391;-61
2022/04/09 02:13:42;;;;;;;;;;;20.80;37.90;;;;;;5060727;28;19916;-61
2022/04/09 02:16:07;;;;;;;;;;;20.80;37.80;;;;;;5045261;28;20433;-61
2022/04/09 02:18:33;;;;;;;;;;;20.80;37.70;;;;;;5064597;28;20407;-60
2022/04/09 02:20:58;;;;;;;;;;;20.80;37.50;;;;;;5065472;28;19917;-61
2022/04/09 02:23:23;;;;;;;;;;;20.80;37.50;;;;;;5062861;28;19977;-61
2022/04/09 02:25:49;;;;;;;;;;;20.80;37.50;;;;;;5062142;28;19912;-60
2022/04/09 02:28:14;;;;;;;;;;;20.80;37.50;;;;;;5061989;28;19920;-61
2022/04/09 02:30:40;;;;;;;;;;;20.70;37.40;;;;;;5044580;28;20538;-61
2022/04/09 02:33:05;;;;;;;;;;;20.70;37.50;;;;;;5038362;28;19913;-60
2022/04/09 02:35:31;;;;;;;;;;;20.70;37.70;;;;;;5055534;28;19923;-60
2022/04/09 02:37:57;;;;;;;;;;;20.60;37.70;;;;;;5057208;28;19913;-61
2022/04/09 02:40:22;;;;;;;;;;;20.50;37.70;;;;;;5062208;28;20376;-60
2022/04/09 02:42:48;;;;;;;;;;;20.50;37.90;;;;;;5043639;28;19959;-61
2022/04/09 02:45:13;;;;;;;;;;;20.40;37.90;;;;;;5031360;28;20578;-61
2022/04/09 02:47:39;;;;;;;;;;;20.40;38.00;;;;;;5064335;28;19955;-61
2022/04/09 02:50:04;;;;;;;;;;;20.40;38.10;;;;;;5061738;28;19962;-60
2022/04/09 02:52:39;;;;;;;;;;;20.30;38.00;;;;;;5064460;28;19916;-61
2022/04/09 02:55:05;;;;;;;;;;;20.40;38.10;;;;;;5044839;28;19912;-61
2022/04/09 02:57:31;;;;;;;;;;;20.30;38.00;;;;;;5046039;28;19958;-60
2022/04/09 02:59:56;;;;;;;;;;;20.30;38.10;;;;;;5040233;28;19916;-60
2022/04/09 03:02:22;;;;;;;;;;;20.30;38.20;;;;;;5064285;28;19920;-60
2022/04/09 03:04:47;;;;;;;;;;;20.20;38.00;;;;;;5062790;28;19913;-60
2022/04/09 03:07:13;;;;;;;;;;;20.20;38.20;;;;;;5067778;28;19955;-60
2022/04/09 03:09:38;;;;;;;;;;;20.20;38.10;;;;;;5064862;28;20375;-60
2022/04/09 03:12:04;;;;;;;;;;;20.20;38.10;;;;;;5051960;28;20616;-61
2022/04/09 03:14:30;;;;;;;;;;;20.20;38.10;;;;;;5045255;28;19913;-61
2022/04/09 03:16:55;;;;;;;;;;;20.20;38.10;;;;;;5066706;28;19920;-61
2022/04/09 03:19:21;;;;;;;;;;;20.20;38.20;;;;;;5063046;28;19921;-61
2022/04/09 03:21:46;;;;;;;;;;;20.20;38.20;;;;;;5065911;28;19924;-60
2022/04/09 03:24:11;;;;;;;;;;;20.10;38.20;;;;;;5067141;28;19928;-60
2022/04/09 03:26:37;;;;;;;;;;;20.10;38.00;;;;;;5064674;28;20352;-60
2022/04/09 03:29:03;;;;;;;;;;;20.10;38.10;;;;;;5046967;28;20458;-60
2022/04/09 03:31:29;;;;;;;;;;;20.10;38.10;;;;;;5062766;28;19921;-60
2022/04/09 03:33:54;;;;;;;;;;;20.10;38.20;;;;;;5041061;28;19920;-60
2022/04/09 03:36:20;;;;;;;;;;;20.10;38.20;;;;;;5050285;28;19917;-60
2022/04/09 03:38:45;;;;;;;;;;;20.10;38.20;;;;;;5061097;28;20295;-60
2022/04/09 03:41:11;;;;;;;;;;;20.10;38.20;;;;;;5043865;28;19912;-61
2022/04/09 03:43:36;;;;;;;;;;;20.10;38.20;;;;;;5064739;28;19919;-60
2022/04/09 03:46:02;;;;;;;;;;;20.10;38.00;;;;;;5063487;28;19963;-60
2022/04/09 03:48:27;;;;;;;;;;;20.10;37.80;;;;;;5067339;28;19919;-60
2022/04/09 03:50:52;;;;;;;;;;;20.10;37.70;;;;;;5060362;28;19920;-60
2022/04/09 03:53:20;;;;;;;;;;;20.20;37.70;;;;;;5048864;28;19924;-60
2022/04/09 03:55:46;;;;;;;;;;;20.10;37.70;;;;;;5064434;28;19955;-60
2022/04/09 03:58:13;;;;;;;;;;;20.10;37.70;;;;;;5068046;28;19921;-60
2022/04/09 04:00:39;;;;;;;;;;;20.10;37.70;;;;;;5031590;28;20272;-60
2022/04/09 04:03:07;;;;;;;;;;;20.10;37.90;;;;;;5050319;28;19920;-60
2022/04/09 04:05:33;;;;;;;;;;;20.10;37.50;;;;;;5062008;28;19916;-60
2022/04/09 04:07:58;;;;;;;;;;;20.10;37.40;;;;;;5062188;28;19944;-60
2022/04/09 04:10:23;;;;;;;;;;;20.10;37.40;;;;;;5041170;28;19916;-60
2022/04/09 04:12:49;;;;;;;;;;;20.10;37.40;;;;;;5065605;28;20311;-60
2022/04/09 04:15:15;;;;;;;;;;;20.10;37.30;;;;;;5062462;28;19912;-60
2022/04/09 04:17:41;;;;;;;;;;;20.10;37.40;;;;;;5049965;28;19999;-60
2022/04/09 04:20:07;;;;;;;;;;;20.10;37.50;;;;;;5043446;28;20288;-60
2022/04/09 04:22:32;;;;;;;;;;;20.00;37.60;;;;;;5027872;28;20358;-60
2022/04/09 04:24:58;;;;;;;;;;;20.00;37.60;;;;;;5064072;28;19916;-60
2022/04/09 04:27:23;;;;;;;;;;;20.00;37.70;;;;;;5048272;28;20276;-60
2022/04/09 04:29:49;;;;;;;;;;;19.90;37.70;;;;;;5045910;28;19920;-60
2022/04/09 04:32:14;;;;;;;;;;;19.90;37.70;;;;;;5039680;28;20490;-60
2022/04/09 04:34:39;;;;;;;;;;;19.90;37.60;;;;;;5064349;28;20319;-60
2022/04/09 04:37:05;;;;;;;;;;;19.90;37.60;;;;;;5050956;28;20339;-60
2022/04/09 04:39:30;;;;;;;;;;;19.90;37.70;;;;;;5041535;28;19921;-60
2022/04/09 04:41:56;;;;;;;;;;;19.90;37.60;;;;;;5062533;28;19912;-60
2022/04/09 04:44:21;;;;;;;;;;;19.90;37.50;;;;;;5046638;28;19913;-60
2022/04/09 04:46:47;;;;;;;;;;;19.90;37.60;;;;;;5042780;28;19912;-60
2022/04/09 04:49:12;;;;;;;;;;;19.90;37.50;;;;;;5024234;28;19990;-60
2022/04/09 04:51:37;;;;;;;;;;;19.90;37.50;;;;;;5063134;28;19927;-60
2022/04/09 04:54:03;;;;;;;;;;;19.90;37.60;;;;;;5049546;28;19923;-60
2022/04/09 04:56:29;;;;;;;;;;;19.80;37.60;;;;;;5067140;28;19999;-58
2022/04/09 04:58:54;;;;;;;;;;;19.90;37.60;;;;;;5047210;28;19990;-58
2022/04/09 05:01:20;;;;;;;;;;;19.80;37.60;;;;;;5061166;28;19919;-60
2022/04/09 05:03:45;;;;;;;;;;;19.80;37.60;;;;;;5065319;28;19920;-60
2022/04/09 05:06:11;;;;;;;;;;;19.80;37.60;;;;;;5066963;28;19912;-60
2022/04/09 05:08:38;;;;;;;;;;;19.70;38.30;;;;;;5047456;28;19913;-58
2022/04/09 05:11:04;;;;;;;;;;;19.70;37.70;;;;;;5060719;28;19954;-60
2022/04/09 05:13:29;;;;;;;;;;;19.60;37.60;;;;;;5043417;28;20457;-60
2022/04/09 05:15:55;;;;;;;;;;;19.60;37.60;;;;;;5048318;28;19921;-60
2022/04/09 05:18:20;;;;;;;;;;;19.60;37.70;;;;;;5049168;28;19912;-60
2022/04/09 05:20:46;;;;;;;;;;;19.60;37.60;;;;;;5046797;28;19912;-60
2022/04/09 05:23:12;;;;;;;;;;;19.60;37.60;;;;;;5042520;28;19943;-61
2022/04/09 05:25:37;;;;;;;;;;;19.60;37.50;;;;;;5048447;28;19919;-60
2022/04/09 05:28:04;;;;;;;;;;;19.70;37.50;;;;;;5064897;28;19943;-58
2022/04/09 05:30:29;;;;;;;;;;;19.70;37.40;;;;;;5064347;28;19925;-60
2022/04/09 05:32:55;;;;;;;;;;;19.80;37.30;;;;;;5062511;28;19966;-60
2022/04/09 05:35:20;;;;;;;;;;;19.80;37.10;;;;;;5063052;28;19939;-60
2022/04/09 05:37:46;;;;;;;;;;;19.90;37.10;;;;;;5045760;28;19920;-60
2022/04/09 05:40:12;;;;;;;;;;;19.90;36.90;;;;;;5043762;28;19912;-60
2022/04/09 05:42:37;;;;;;;;;;;19.90;36.80;;;;;;5062535;28;19912;-60
2022/04/09 05:45:03;;;;;;;;;;;19.90;36.70;;;;;;5064398;28;19958;-60
2022/04/09 05:47:29;;;;;;;;;;;20.00;36.80;;;;;;5046399;28;20377;-60
2022/04/09 05:49:56;;;;;;;;;;;20.00;37.40;;;;;;5062076;28;20328;-60
2022/04/09 05:52:22;;;;;;;;;;;19.90;36.70;;;;;;5063934;28;19916;-60
2022/04/09 05:54:48;;;;;;;;;;;19.90;36.70;;;;;;5044284;28;19967;-60
2022/04/09 05:57:14;;;;;;;;;;;19.90;36.60;;;;;;5062510;28;19970;-60
2022/04/09 05:59:39;;;;;;;;;;;19.90;36.60;;;;;;5063915;28;20327;-60
2022/04/09 06:02:05;;;;;;;;;;;19.90;36.60;;;;;;5063870;28;20369;-60
2022/04/09 06:04:31;;;;;;;;;;;19.90;36.60;;;;;;5042797;28;19958;-60
2022/04/09 06:06:56;;;;;;;;;;;19.90;36.70;;;;;;5059073;28;20379;-60
2022/04/09 06:09:22;;;;;;;;;;;19.80;36.60;;;;;;5059561;28;20277;-60
2022/04/09 06:11:47;;;;;;;;;;;19.80;36.60;;;;;;5045191;28;19928;-58
2022/04/09 06:14:15;;;;;;;;;;;19.80;36.60;;;;;;5062489;28;19913;-60
2022/04/09 06:16:41;;;;;;;;;;;19.80;36.60;;;;;;5058177;28;19967;-60
2022/04/09 06:19:06;;;;;;;;;;;19.80;36.60;;;;;;5063233;28;19919;-60
2022/04/09 06:21:33;;;;;;;;;;;19.80;36.60;;;;;;5061936;28;19916;-60
2022/04/09 06:23:59;;;;;;;;;;;19.80;36.60;;;;;;5061557;28;19931;-60
2022/04/09 06:26:24;;;;;;;;;;;19.70;36.50;;;;;;5044254;28;19913;-61
2022/04/09 06:28:50;;;;;;;;;;;19.70;36.60;;;;;;5046776;28;19927;-60
2022/04/09 06:31:15;;;;;;;;;;;19.70;36.70;;;;;;5061428;28;23525;-61
2022/04/09 06:33:41;;;;;;;;;;;19.60;36.60;;;;;;5062286;28;19917;-60
2022/04/09 06:36:06;;;;;;;;;;;19.60;36.60;;;;;;5063372;28;19917;-60
2022/04/09 06:38:35;;;;;;;;;;;19.50;36.60;;;;;;5043049;28;19916;-60
2022/04/09 06:41:00;;;;;;;;;;;19.50;36.60;;;;;;5051728;28;19929;-61
2022/04/09 06:43:30;;;;;;;;;;;19.50;36.60;;;;;;5047843;28;20300;-60
2022/04/09 06:45:56;;;;;;;;;;;19.50;36.70;;;;;;5050454;28;19934;-60
2022/04/09 06:48:21;;;;;;;;;;;19.50;36.70;;;;;;5050053;28;19916;-61
2022/04/09 06:50:47;;;;;;;;;;;19.40;36.60;;;;;;5069403;28;20379;-61
2022/04/09 06:53:12;;;;;;;;;;;19.50;36.70;;;;;;5048537;28;19960;-60
2022/04/09 06:55:38;;;;;;;;;;;19.50;36.70;;;;;;5049108;28;19917;-60
2022/04/09 06:58:04;;;;;;;;;;;19.50;36.70;;;;;;5061956;28;19952;-60
2022/04/09 07:00:29;;;;;;;;;;;19.50;36.70;;;;;;5062543;28;20022;-58
2022/04/09 07:02:55;;;;;;;;;;;19.50;36.70;;;;;;5075492;28;20253;-58
2022/04/09 07:05:20;;;;;;;;;;;19.50;36.70;;;;;;5067310;28;20331;-61
2022/04/09 07:07:46;;;;;;;;;;;19.50;36.70;;;;;;5057397;28;19931;-60
2022/04/09 07:10:11;;;;;;;;;;;19.50;36.80;;;;;;5078214;28;19912;-60
2022/04/09 07:12:37;;;;;;;;;;;19.50;36.80;;;;;;5073914;28;19923;-59
2022/04/09 07:15:03;;;;;;;;;;;19.40;36.80;;;;;;5061225;28;20387;-59
2022/04/09 07:17:29;;;;;;;;;;;19.40;36.70;;;;;;5070875;28;19916;-60
2022/04/09 07:19:58;;;;;;;;;;;19.50;36.80;;;;;;5053211;28;19912;-60
2022/04/09 07:22:24;;;;;;;;;;;19.40;36.80;;;;;;5074285;28;20409;-60
2022/04/09 07:24:49;;;;;;;;;;;19.40;36.80;;;;;;5037749;28;19943;-60
2022/04/09 07:27:15;;;;;;;;;;;19.40;36.70;;;;;;5067575;28;19938;-60
2022/04/09 07:29:40;;;;;;;;;;;19.40;36.70;;;;;;5063863;28;20434;-60
2022/04/09 07:32:06;;;;;;;;;;;19.40;36.60;;;;;;5039493;28;20372;-60
2022/04/09 07:34:31;;;;;;;;;;;19.50;36.70;;;;;;5036445;28;19920;-60
2022/04/09 07:36:57;;;;;;;;;;;19.50;36.70;;;;;;5044879;28;20319;-59
2022/04/09 07:39:22;;;;;;;;;;;19.50;36.70;;;;;;5045873;28;20265;-60
2022/04/09 07:41:48;;;;;;;;;;;19.50;36.70;;;;;;5058291;28;19999;-60
2022/04/09 07:44:13;;;;;;;;;;;19.50;36.70;;;;;;5020234;28;19920;-60
2022/04/09 07:46:39;;;;;;;;;;;19.60;36.70;;;;;;5054554;28;19919;-60
2022/04/09 07:49:04;;;;;;;;;;;19.70;36.70;;;;;;5022763;28;20009;-60
2022/04/09 07:51:30;;;;;;;;;;;19.80;36.50;;;;;;5016477;28;19924;-60
2022/04/09 07:53:55;;;;;;;;;;;20.00;36.40;;;;;;5040436;28;19919;-60
2022/04/09 07:56:20;;;;;;;;;;;20.10;36.20;;;;;;5055185;28;19917;-60
2022/04/09 07:58:46;;;;;;;;;;;20.10;36.10;;;;;;5036217;28;19908;-60
2022/04/09 08:01:11;;;;;;;;;;;20.20;36.20;;;;;;5013365;28;19913;-60
2022/04/09 08:03:37;;;;;;;;;;;20.30;36.20;;;;;;5049862;28;19956;-60
2022/04/09 08:06:05;;;;;;;;;;;20.40;36.10;;;;;;5058495;28;19917;-60
2022/04/09 08:08:31;;;;;;;;;;;20.40;35.90;;;;;;5023888;28;20018;-60
2022/04/09 08:10:56;;;;;;;;;;;20.50;35.80;;;;;;5057785;28;19916;-60
2022/04/09 08:13:22;;;;;;;;;;;20.60;35.80;;;;;;5043152;28;20038;-59
2022/04/09 08:15:47;;;;;;;;;;;20.70;35.70;;;;;;5041791;28;19920;-60
2022/04/09 08:18:13;;;;;;;;;;;20.70;35.70;;;;;;5026572;28;19916;-59
2022/04/09 08:20:38;;;;;;;;;;;20.80;35.70;;;;;;5043070;28;19953;-60
2022/04/09 08:23:04;;;;;;;;;;;20.80;35.60;;;;;;5057641;28;19924;-60
2022/04/09 08:25:30;;;;;;;;;;;20.90;35.60;;;;;;5061480;28;20672;-60
2022/04/09 08:27:55;;;;;;;;;;;20.90;35.50;;;;;;5040073;28;19938;-60
2022/04/09 08:30:22;;;;;;;;;;;20.90;35.40;;;;;;5066010;28;20300;-60
2022/04/09 08:32:49;;;;;;;;;;;20.90;35.50;;;;;;5057708;28;19917;-59
2022/04/09 08:35:15;;;;;;;;;;;20.90;35.50;;;;;;5065357;28;19913;-60
2022/04/09 08:37:41;;;;;;;;;;;21.00;35.60;;;;;;5065957;28;20026;-60
2022/04/09 08:40:07;;;;;;;;;;;20.90;35.50;;;;;;5064834;28;19913;-60
2022/04/09 08:42:32;;;;;;;;;;;20.90;35.70;;;;;;5049277;28;20128;-60
2022/04/09 08:45:01;;;;;;;;;;;20.80;35.80;;;;;;5049369;28;20032;-60
2022/04/09 08:47:28;;;;;;;;;;;20.80;35.80;;;;;;5065623;28;19912;-60
2022/04/09 08:49:54;;;;;;;;;;;20.80;35.80;;;;;;5040036;28;19940;-60
2022/04/09 08:52:19;;;;;;;;;;;20.80;35.80;;;;;;5045733;28;20372;-60
2022/04/09 08:54:45;;;;;;;;;;;20.80;35.80;;;;;;5045912;28;19913;-60
2022/04/09 08:57:11;;;;;;;;;;;20.80;35.90;;;;;;5064459;28;19919;-60
2022/04/09 08:59:36;;;;;;;;;;;20.80;35.80;;;;;;5049992;28;19924;-60
2022/04/09 09:02:02;;;;;;;;;;;20.80;35.90;;;;;;5048938;28;19962;-60
2022/04/09 09:04:28;;;;;;;;;;;20.90;36.00;;;;;;5045634;28;19920;-59
2022/04/09 09:06:53;;;;;;;;;;;20.80;35.80;;;;;;5042930;28;20423;-60
2022/04/09 09:09:29;;;;;;;;;;;20.90;36.00;;;;;;5046140;28;19938;-60
2022/04/09 09:11:55;;;;;;;;;;;20.90;36.00;;;;;;5048893;28;19924;-60
2022/04/09 09:14:30;;;;;;;;;;;20.90;36.00;;;;;;5059495;28;20380;-60
2022/04/09 09:16:59;;;;;;;;;;;20.90;36.00;;;;;;5064051;28;19916;-59
2022/04/09 09:19:45;;;;;;;;;;;20.90;36.00;;;;;;5046531;28;19924;-60
2022/04/09 09:22:10;;;;;;;;;;;20.90;36.10;;;;;;5062433;28;19924;-60
2022/04/09 09:24:36;;;;;;;;;;;20.80;36.20;;;;;;5041534;28;19913;-60
2022/04/09 09:27:02;;;;;;;;;;;20.80;36.20;;;;;;5063944;28;19919;-61
2022/04/09 09:29:29;;;;;;;;;;;20.80;36.30;;;;;;5048947;28;19912;-58
2022/04/09 09:31:54;;;;;;;;;;;20.90;36.40;;;;;;5032272;28;19927;-59
2022/04/09 09:34:20;;;;;;;;;;;20.90;36.30;;;;;;5064429;28;19912;-59
2022/04/09 09:36:46;;;;;;;;;;;21.00;36.40;;;;;;5063279;28;19959;-59
2022/04/09 09:39:11;;;;;;;;;;;21.10;36.40;;;;;;5044759;28;19919;-59
2022/04/09 09:41:49;;;;;;;;;;;21.20;36.40;;;;;;5042302;28;19913;-59
2022/04/09 09:44:16;;;;;;;;;;;21.20;36.50;;;;;;5064258;28;19919;-59
2022/04/09 09:46:42;;;;;;;;;;;21.20;36.60;;;;;;5042603;28;19917;-59
2022/04/09 09:49:08;;;;;;;;;;;21.30;36.40;;;;;;5049637;28;19918;-59
2022/04/09 09:51:33;;;;;;;;;;;21.30;36.30;;;;;;5066035;28;21923;-59
2022/04/09 09:54:09;;;;;;;;;;;21.30;36.30;;;;;;5041545;28;19923;-59
2022/04/09 09:56:39;;;;;;;;;;;21.30;36.10;;;;;;5030021;28;19927;-59
2022/04/09 09:59:11;;;;;;;;;;;21.30;36.00;;;;;;5071926;28;20380;-59
2022/04/09 10:01:43;;;;;;;;;;;21.30;36.00;;;;;;5071553;28;20351;-59
2022/04/09 10:04:09;;;;;;;;;;;21.30;36.00;;;;;;5062480;28;20023;-59
2022/04/09 10:06:35;;;;;;;;;;;21.30;35.90;;;;;;5072360;28;20348;-59
2022/04/09 10:09:01;;;;;;;;;;;21.30;35.70;;;;;;5053437;28;20326;-59
2022/04/09 10:11:28;;;;;;;;;;;21.30;35.70;;;;;;5071983;28;19913;-61
2022/04/09 10:13:55;;;;;;;;;;;21.30;35.70;;;;;;5060147;28;19978;-59
2022/04/09 10:16:21;;;;;;;;;;;21.20;35.70;;;;;;5071694;28;19953;-59
2022/04/09 10:18:47;;;;;;;;;;;21.30;35.60;;;;;;5070350;28;19920;-59
2022/04/09 10:21:12;;;;;;;;;;;21.20;35.50;;;;;;5071887;28;19914;-61
2022/04/09 10:23:38;;;;;;;;;;;21.30;35.80;;;;;;5036503;28;19932;-61
2022/04/09 10:26:04;;;;;;;;;;;21.30;35.80;;;;;;5063841;28;20014;-59
2022/04/09 10:28:30;;;;;;;;;;;21.30;35.80;;;;;;5063291;28;19915;-59
2022/04/09 10:30:56;;;;;;;;;;;21.30;35.80;;;;;;5092133;28;19908;-59
2022/04/09 10:33:22;;;;;;;;;;;21.40;36.00;;;;;;5080621;28;19912;-60
2022/04/09 10:35:48;;;;;;;;;;;21.40;36.00;;;;;;5050434;28;19909;-59
2022/04/09 10:38:17;;;;;;;;;;;21.40;36.10;;;;;;5033368;28;20340;-59
2022/04/09 10:40:42;;;;;;;;;;;21.40;36.20;;;;;;5054924;28;19919;-60
2022/04/09 10:43:08;;;;;;;;;;;21.50;36.40;;;;;;5054403;28;20300;-60
2022/04/09 10:45:56;;;;;;;;;;;21.50;36.40;;;;;;5058593;28;20265;-59
2022/04/09 10:48:29;;;;;;;;;;;21.40;36.60;;;;;;5054196;28;19921;-60
2022/04/09 10:51:04;;;;;;;;;;;21.40;36.90;;;;;;5058435;28;19913;-59
2022/04/09 10:53:56;;;;;;;;;;;21.40;36.90;;;;;;5039695;28;19924;-59
2022/04/09 10:56:26;;;;;;;;;;;21.40;37.00;;;;;;5037435;28;19971;-59
2022/04/09 10:59:12;;;;;;;;;;;21.40;37.10;;;;;;5039732;28;19970;-59
2022/04/09 11:01:50;;;;;;;;;;;21.40;37.80;;;;;;5059153;28;19916;-59
2022/04/09 11:04:37;;;;;;;;;;;21.40;37.10;;;;;;5057030;28;20007;-59
2022/04/09 11:07:03;;;;;;;;;;;21.40;37.10;;;;;;5057724;28;19932;-59
2022/04/09 11:09:40;;;;;;;;;;;21.40;37.00;;;;;;5040890;28;19917;-59
2022/04/09 11:12:06;;;;;;;;;;;21.50;37.10;;;;;;5056595;28;19916;-59
2022/04/09 11:14:42;;;;;;;;;;;21.50;37.10;;;;;;5057767;28;19921;-59
2022/04/09 11:17:17;;;;;;;;;;;21.50;37.00;;;;;;5040902;28;20006;-59
2022/04/09 11:19:42;;;;;;;;;;;21.60;37.10;;;;;;5058384;28;19912;-59
2022/04/09 11:22:09;;;;;;;;;;;21.60;37.10;;;;;;5055955;28;20282;-59
2022/04/09 11:24:40;;;;;;;;;;;21.60;37.00;;;;;;5058808;28;19924;-60
2022/04/09 11:27:06;;;;;;;;;;;21.60;37.00;;;;;;5042773;28;20390;-59
2022/04/09 11:29:32;;;;;;;;;;;21.70;37.40;;;;;;5060341;28;19912;-59
2022/04/09 11:31:58;;;;;;;;;;;21.60;37.30;;;;;;5058499;28;19924;-59
2022/04/09 11:34:25;;;;;;;;;;;21.60;37.20;;;;;;5060781;28;19917;-59
2022/04/09 11:36:52;;;;;;;;;;;21.70;37.20;;;;;;5057780;28;19925;-59
2022/04/09 11:39:17;;;;;;;;;;;21.70;37.20;;;;;;5060480;28;19958;-59
2022/04/09 11:41:46;;;;;;;;;;;21.70;37.20;;;;;;5063327;28;19928;-59
2022/04/09 11:44:25;;;;;;;;;;;21.70;37.30;;;;;;5064927;28;19999;-59
2022/04/09 11:46:51;;;;;;;;;;;21.60;37.40;;;;;;5064385;28;19978;-60
2022/04/09 11:49:18;;;;;;;;;;;21.70;37.50;;;;;;5060666;28;19917;-60
2022/04/09 11:51:53;;;;;;;;;;;21.70;37.50;;;;;;5061301;28;20815;-60
2022/04/09 11:54:19;;;;;;;;;;;21.70;37.50;;;;;;5064170;28;20384;-58
2022/04/09 11:56:44;;;;;;;;;;;21.70;37.70;;;;;;5064314;28;19919;-59
2022/04/09 11:59:13;;;;;;;;;;;21.60;37.70;;;;;;5047501;28;19921;-59
2022/04/09 12:01:39;;;;;;;;;;;21.70;37.70;;;;;;5064638;28;20351;-60
2022/04/09 12:04:04;;;;;;;;;;;21.60;37.80;;;;;;5047675;28;19913;-59
2022/04/09 12:06:30;;;;;;;;;;;21.50;38.00;;;;;;5064455;28;20376;-59
2022/04/09 12:08:55;;;;;;;;;;;21.50;38.10;;;;;;5045663;28;22850;-59
2022/04/09 12:11:21;;;;;;;;;;;21.50;38.20;;;;;;5047203;28;19966;-59
2022/04/09 12:13:46;;;;;;;;;;;21.50;38.20;;;;;;5062176;28;19912;-59
2022/04/09 12:16:12;;;;;;;;;;;21.50;39.00;;;;;;5047369;28;19913;-59
2022/04/09 12:18:37;;;;;;;;;;;21.60;38.50;;;;;;5061667;28;20015;-59
2022/04/09 12:21:22;;;;;;;;;;;21.60;38.50;;;;;;5065603;28;20004;-59
2022/04/09 12:24:06;;;;;;;;;;;21.60;38.60;;;;;;5045474;28;19966;-59
2022/04/09 12:26:32;;;;;;;;;;;21.70;38.60;;;;;;5046828;28;20382;-60
2022/04/09 12:29:05;;;;;;;;;;;21.80;38.50;;;;;;5064354;28;19916;-59
2022/04/09 12:31:32;;;;;;;;;;;21.80;38.40;;;;;;5044924;28;20407;-59
2022/04/09 12:33:58;;;;;;;;;;;21.90;38.50;;;;;;5047355;28;20376;-60
2022/04/09 12:36:23;;;;;;;;;;;21.90;38.30;;;;;;5046530;28;19928;-59
2022/04/09 12:38:48;;;;;;;;;;;22.00;38.40;;;;;;5045720;28;19920;-59
2022/04/09 12:41:14;;;;;;;;;;;22.00;38.40;;;;;;5063289;28;19917;-59
2022/04/09 12:43:41;;;;;;;;;;;22.00;38.50;;;;;;5063096;28;19958;-60
2022/04/09 12:46:07;;;;;;;;;;;22.00;38.60;;;;;;5046232;28;19945;-60
2022/04/09 12:48:37;;;;;;;;;;;22.00;38.70;;;;;;5046455;28;19947;-60
2022/04/09 12:51:02;;;;;;;;;;;22.00;38.60;;;;;;5030902;28;19912;-60
2022/04/09 12:53:28;;;;;;;;;;;22.00;39.40;;;;;;5043644;28;19921;-60
2022/04/09 12:55:53;;;;;;;;;;;22.00;38.70;;;;;;5047171;28;19920;-59
2022/04/09 12:58:19;;;;;;;;;;;22.00;38.80;;;;;;5062011;28;19916;-59
2022/04/09 13:00:44;;;;;;;;;;;22.00;38.70;;;;;;5062639;28;19920;-59
2022/04/09 13:03:10;;;;;;;;;;;22.00;38.70;;;;;;5048340;28;19995;-59
2022/04/09 13:05:35;;;;;;;;;;;22.00;38.70;;;;;;5053452;28;20292;-59
2022/04/09 13:08:01;;;;;;;;;;;22.00;38.70;;;;;;5041170;28;20376;-61
2022/04/09 13:10:26;;;;;;;;;;;22.00;38.70;;;;;;5092695;28;20394;-59
2022/04/09 13:12:51;;;;;;;;;;;22.00;38.70;;;;;;5093217;28;20279;-59
2022/04/09 13:15:17;;;;;;;;;;;22.10;38.80;;;;;;5066979;28;20374;-59
2022/04/09 13:17:42;;;;;;;;;;;22.10;38.80;;;;;;5053114;28;20346;-59
2022/04/09 13:20:09;;;;;;;;;;;22.00;38.80;;;;;;5039647;28;19932;-59
2022/04/09 13:22:34;;;;;;;;;;;22.00;38.80;;;;;;5075127;28;19986;-59
2022/04/09 13:25:00;;;;;;;;;;;22.00;38.80;;;;;;5092257;28;19912;-59
2022/04/09 13:27:25;;;;;;;;;;;22.00;38.90;;;;;;5056419;28;20284;-59
2022/04/09 13:29:51;;;;;;;;;;;22.00;39.00;;;;;;5054567;28;20011;-59
2022/04/09 13:32:17;;;;;;;;;;;22.00;39.00;;;;;;5079102;28;19923;-59
2022/04/09 13:34:43;;;;;;;;;;;22.00;38.90;;;;;;5053823;28;19912;-59
2022/04/09 13:37:08;;;;;;;;;;;22.00;38.80;;;;;;5037119;28;20387;-59
2022/04/09 13:39:34;;;;;;;;;;;22.00;38.80;;;;;;5053485;28;19995;-59
2022/04/09 13:41:59;;;;;;;;;;;22.00;38.70;;;;;;5070235;28;19981;-59
2022/04/09 13:44:25;;;;;;;;;;;22.00;38.70;;;;;;5046660;28;19912;-59
2022/04/09 13:46:50;;;;;;;;;;;22.00;38.80;;;;;;5052556;28;20337;-59
2022/04/09 13:49:16;;;;;;;;;;;22.00;38.90;;;;;;5061418;28;20075;-59
2022/04/09 13:51:41;;;;;;;;;;;22.00;38.80;;;;;;5067696;28;19923;-59
2022/04/09 13:54:07;;;;;;;;;;;22.00;38.90;;;;;;5047553;28;19920;-59
2022/04/09 13:56:32;;;;;;;;;;;22.00;38.80;;;;;;5066819;28;20053;-59
2022/04/09 13:58:57;;;;;;;;;;;22.00;38.80;;;;;;5064048;28;19920;-59
2022/04/09 14:01:23;;;;;;;;;;;22.00;38.90;;;;;;5067070;28;20437;-59
2022/04/09 14:03:48;;;;;;;;;;;22.00;39.00;;;;;;5066543;28;20292;-60
2022/04/09 14:06:17;;;;;;;;;;;22.00;39.10;;;;;;5065975;28;20372;-59
2022/04/09 14:08:42;;;;;;;;;;;22.00;39.00;;;;;;5049538;28;19912;-59
2022/04/09 14:11:08;;;;;;;;;;;22.10;39.00;;;;;;5066224;28;19948;-59
2022/04/09 14:13:33;;;;;;;;;;;22.10;38.90;;;;;;5067420;28;20288;-59
2022/04/09 14:15:58;;;;;;;;;;;22.10;38.80;;;;;;5047405;28;20027;-59